createdAt,value
2018-06-19T00:00:37.401Z,14.33
2018-06-19T00:03:05.792Z,15.40
2018-06-19T00:05:34.102Z,15.27
2018-06-19T00:08:02.988Z,14.07
2018-06-19T00:10:32.224Z,15.23
2018-06-19T00:13:00.547Z,17.43
2018-06-19T00:15:28.857Z,15.33
2018-06-19T00:18:01.187Z,16.33
2018-06-19T00:20:29.535Z,17.73
2018-06-19T00:22:57.838Z,16.60
2018-06-19T00:25:26.169Z,17.57
2018-06-19T00:27:54.205Z,16.50
2018-06-19T00:30:22.521Z,15.50
2018-06-19T00:32:50.801Z,17.33
2018-06-19T00:35:19.084Z,17.90
2018-06-19T00:37:47.379Z,15.90
2018-06-19T00:40:15.689Z,16.63
2018-06-19T00:42:43.975Z,17.07
2018-06-19T00:45:12.263Z,18.70
2018-06-19T00:47:40.589Z,17.07
2018-06-19T00:50:09.005Z,17.57
2018-06-19T00:52:37.299Z,17.40
2018-06-19T00:55:05.579Z,19.77
2018-06-19T00:57:33.881Z,18.10
2018-06-19T01:00:02.181Z,17.90
2018-06-19T01:02:30.477Z,18.00
2018-06-19T01:04:58.789Z,17.77
2018-06-19T01:07:27.095Z,19.53
2018-06-19T01:09:55.389Z,20.17
2018-06-19T01:12:23.689Z,22.03
2018-06-19T01:14:51.971Z,18.27
2018-06-19T01:17:20.259Z,17.53
2018-06-19T01:19:48.553Z,19.40
2018-06-19T01:22:16.825Z,19.03
2018-06-19T01:24:45.101Z,18.97
2018-06-19T01:27:13.411Z,18.10
2018-06-19T01:29:41.728Z,17.73
2018-06-19T01:32:10.035Z,17.90
2018-06-19T01:34:38.395Z,18.23
2018-06-19T01:37:06.718Z,17.43
2018-06-19T01:39:35.013Z,17.97
2018-06-19T01:42:03.299Z,17.07
2018-06-19T01:44:31.563Z,16.03
2018-06-19T01:46:59.884Z,17.10
2018-06-19T01:49:28.291Z,15.10
2018-06-19T01:51:56.573Z,16.43
2018-06-19T01:54:24.875Z,19.97
2018-06-19T01:56:53.169Z,16.70
2018-06-19T01:59:21.433Z,16.33
2018-06-19T02:01:49.765Z,16.10
2018-06-19T02:04:18.059Z,16.70
2018-06-19T02:06:46.430Z,17.77
2018-06-19T02:09:14.703Z,17.40
2018-06-19T02:11:42.978Z,15.73
2018-06-19T02:14:11.333Z,15.57
2018-06-19T02:16:39.607Z,16.80
2018-06-19T02:19:07.923Z,16.37
2018-06-19T02:21:36.201Z,16.37
2018-06-19T02:24:04.496Z,15.57
2018-06-19T02:26:32.789Z,16.10
2018-06-19T02:29:01.141Z,15.87
2018-06-19T02:31:29.437Z,16.10
2018-06-19T02:33:57.743Z,15.30
2018-06-19T02:36:26.038Z,16.37
2018-06-19T02:38:54.321Z,16.03
2018-06-19T02:41:22.616Z,17.47
2018-06-19T02:43:50.931Z,14.50
2018-06-19T02:46:19.245Z,17.30
2018-06-19T02:48:47.521Z,15.70
2018-06-19T02:51:15.837Z,15.73
2018-06-19T02:53:44.124Z,13.80
2018-06-19T02:56:12.435Z,14.33
2018-06-19T02:58:40.736Z,14.13
2018-06-19T03:01:09.081Z,14.93
2018-06-19T03:03:37.380Z,14.30
2018-06-19T03:06:05.797Z,13.73
2018-06-19T03:08:34.143Z,12.50
2018-06-19T03:11:02.437Z,12.77
2018-06-19T03:13:30.725Z,14.03
2018-06-19T03:15:59.077Z,13.77
2018-06-19T03:18:27.371Z,11.70
2018-06-19T03:20:55.681Z,15.33
2018-06-19T03:23:23.996Z,14.53
2018-06-19T03:25:52.307Z,12.17
2018-06-19T03:28:20.605Z,11.90
2018-06-19T03:30:48.889Z,12.10
2018-06-19T03:33:17.169Z,11.37
2018-06-19T03:35:45.463Z,10.77
2018-06-19T03:38:13.757Z,10.20
2018-06-19T03:40:42.051Z,10.60
2018-06-19T03:43:10.316Z,11.83
2018-06-19T03:45:38.617Z,10.00
2018-06-19T03:48:07.761Z,9.80
2018-06-19T03:50:36.053Z,10.13
2018-06-19T03:53:04.412Z,11.57
2018-06-19T03:55:32.741Z,10.27
2018-06-19T03:58:01.051Z,8.47
2018-06-19T04:00:29.347Z,8.43
2018-06-19T04:02:57.642Z,10.57
2018-06-19T04:05:25.921Z,10.87
2018-06-19T04:07:54.205Z,11.90
2018-06-19T04:10:22.491Z,8.47
2018-06-19T04:12:50.806Z,10.97
2018-06-19T04:15:19.245Z,9.93
2018-06-19T04:17:47.578Z,11.23
2018-06-19T04:20:15.873Z,9.30
2018-06-19T04:22:44.149Z,11.63
2018-06-19T04:25:12.447Z,8.63
2018-06-19T04:27:40.755Z,10.53
2018-06-19T04:30:09.043Z,9.03
2018-06-19T04:32:37.335Z,8.53
2018-06-19T04:35:05.623Z,12.50
2018-06-19T04:37:33.922Z,11.33
2018-06-19T04:40:02.219Z,11.13
2018-06-19T04:42:30.493Z,8.97
2018-06-19T04:44:58.794Z,8.27
2018-06-19T04:47:27.095Z,10.40
2018-06-19T04:49:55.457Z,9.03
2018-06-19T04:52:23.772Z,9.27
2018-06-19T04:54:52.054Z,12.30
2018-06-19T04:57:20.348Z,12.17
2018-06-19T04:59:48.659Z,9.03
2018-06-19T05:02:16.964Z,10.93
2018-06-19T05:04:45.244Z,8.57
2018-06-19T05:07:13.555Z,11.77
2018-06-19T05:09:41.885Z,12.60
2018-06-19T05:12:10.193Z,11.17
2018-06-19T05:14:38.514Z,9.93
2018-06-19T05:17:06.845Z,12.80
2018-06-19T05:19:35.170Z,9.77
2018-06-19T05:22:03.475Z,10.43
2018-06-19T05:24:31.538Z,9.40
2018-06-19T05:26:59.845Z,10.73
2018-06-19T05:29:28.207Z,8.70
2018-06-19T05:31:56.526Z,11.00
2018-06-19T05:34:24.829Z,12.77
2018-06-19T05:36:53.106Z,10.43
2018-06-19T05:39:21.415Z,12.57
2018-06-19T05:41:49.721Z,13.77
2018-06-19T05:44:18.027Z,10.40
2018-06-19T05:46:46.377Z,9.37
2018-06-19T05:49:14.703Z,7.97
2018-06-19T05:51:43.019Z,11.37
2018-06-19T05:54:11.322Z,11.60
2018-06-19T05:56:39.609Z,11.47
2018-06-19T05:59:07.917Z,10.13
2018-06-19T06:01:36.243Z,11.00
2018-06-19T06:04:04.570Z,12.83
2018-06-19T06:06:32.887Z,9.70
2018-06-19T06:09:01.161Z,11.57
2018-06-19T06:11:29.436Z,10.17
2018-06-19T06:13:57.723Z,9.53
2018-06-19T06:16:26.112Z,9.33
2018-06-19T06:18:54.371Z,9.77
2018-06-19T06:21:22.759Z,11.70
2018-06-19T06:23:51.099Z,14.77
2018-06-19T06:26:19.395Z,14.27
2018-06-19T06:28:47.688Z,9.80
2018-06-19T06:31:16.001Z,8.57
2018-06-19T06:33:44.297Z,9.90
2018-06-19T06:36:12.481Z,13.73
2018-06-19T06:38:40.827Z,12.10
2018-06-19T06:41:09.108Z,14.80
2018-06-19T06:43:37.425Z,13.27
2018-06-19T06:46:05.914Z,10.77
2018-06-19T06:48:34.229Z,12.67
2018-06-19T06:51:02.559Z,15.87
2018-06-19T06:53:31.669Z,13.23
2018-06-19T06:55:59.999Z,9.10
2018-06-19T06:58:28.711Z,12.67
2018-06-19T07:00:57.001Z,15.13
2018-06-19T07:03:26.691Z,12.10
2018-06-19T07:05:55.024Z,14.67
2018-06-19T07:08:23.338Z,15.77
2018-06-19T07:10:51.650Z,16.27
2018-06-19T07:13:19.913Z,15.20
2018-06-19T07:15:48.322Z,14.43
2018-06-19T07:18:16.642Z,14.37
2018-06-19T07:20:44.986Z,13.43
2018-06-19T07:23:13.273Z,14.97
2018-06-19T07:25:41.597Z,14.83
2018-06-19T07:28:09.883Z,12.40
2018-06-19T07:30:38.169Z,14.20
2018-06-19T07:33:06.505Z,12.67
2018-06-19T07:35:34.839Z,15.13
2018-06-19T07:38:03.185Z,11.93
2018-06-19T07:40:31.465Z,14.97
2018-06-19T07:43:03.535Z,13.47
2018-06-19T07:45:32.161Z,13.17
2018-06-19T07:48:00.965Z,14.83
2018-06-19T07:50:30.061Z,17.33
2018-06-19T07:52:58.439Z,13.23
2018-06-19T07:55:26.863Z,14.33
2018-06-19T07:57:55.145Z,15.17
2018-06-19T08:00:23.901Z,14.87
2018-06-19T08:02:52.227Z,17.40
2018-06-19T08:05:20.515Z,13.23
2018-06-19T08:07:48.843Z,15.70
2018-06-19T08:10:17.153Z,16.90
2018-06-19T08:12:45.837Z,13.40
2018-06-19T08:15:14.199Z,16.03
2018-06-19T08:17:42.509Z,21.23
2018-06-19T08:20:11.259Z,22.67
2018-06-19T08:22:39.676Z,20.47
2018-06-19T08:25:08.038Z,16.80
2018-06-19T08:27:36.341Z,21.30
2018-06-19T08:30:04.751Z,15.10
2018-06-19T08:32:33.075Z,13.73
2018-06-19T08:35:01.433Z,20.57
2018-06-19T08:37:29.781Z,19.53
2018-06-19T08:39:58.083Z,14.93
2018-06-19T08:42:26.443Z,18.17
2018-06-19T08:44:54.768Z,15.77
2018-06-19T08:47:23.111Z,19.30
2018-06-19T08:49:51.445Z,19.13
2018-06-19T08:52:19.806Z,19.07
2018-06-19T08:54:48.129Z,20.27
2018-06-19T08:57:16.519Z,17.27
2018-06-19T08:59:44.839Z,20.33
2018-06-19T09:02:13.142Z,17.37
2018-06-19T09:04:41.485Z,20.23
2018-06-19T09:07:09.999Z,19.53
2018-06-19T09:09:38.305Z,16.17
2018-06-19T09:12:06.831Z,14.97
2018-06-19T09:14:35.258Z,20.20
2018-06-19T09:17:03.597Z,20.03
2018-06-19T09:19:31.637Z,19.37
2018-06-19T09:21:59.968Z,21.03
2018-06-19T09:24:28.387Z,23.73
2018-06-19T09:26:56.675Z,19.47
2018-06-19T09:29:25.103Z,20.33
2018-06-19T09:31:53.457Z,19.47
2018-06-19T09:34:21.680Z,22.27
2018-06-19T09:36:49.993Z,19.07
2018-06-19T09:39:18.299Z,22.17
2018-06-19T09:41:46.625Z,20.87
2018-06-19T09:44:15.018Z,20.40
2018-06-19T09:46:43.321Z,23.13
2018-06-19T09:49:11.735Z,17.90
2018-06-19T09:51:41.295Z,20.37
2018-06-19T09:54:09.603Z,23.00
2018-06-19T09:56:37.925Z,18.17
2018-06-19T09:59:06.307Z,20.17
2018-06-19T10:01:34.683Z,19.07
2018-06-19T10:04:03.269Z,16.73
2018-06-19T10:06:31.814Z,16.10
2018-06-19T10:09:00.251Z,15.77
2018-06-19T10:11:28.555Z,14.60
2018-06-19T10:13:56.860Z,14.57
2018-06-19T10:16:25.186Z,15.83
2018-06-19T10:18:53.505Z,14.97
2018-06-19T10:21:21.825Z,17.30
2018-06-19T10:23:50.118Z,15.27
2018-06-19T10:26:18.473Z,14.00
2018-06-19T10:28:46.803Z,16.87
2018-06-19T10:31:15.103Z,16.77
2018-06-19T10:33:43.403Z,17.70
2018-06-19T10:36:11.718Z,15.77
2018-06-19T10:38:40.055Z,14.63
2018-06-19T10:41:15.098Z,15.83
2018-06-19T10:43:43.387Z,13.50
2018-06-19T10:46:11.881Z,11.90
2018-06-19T10:48:40.211Z,12.87
2018-06-19T10:51:08.591Z,13.07
2018-06-19T10:53:36.915Z,11.10
2018-06-19T10:56:05.246Z,12.83
2018-06-19T10:58:33.597Z,10.03
2018-06-19T11:01:01.923Z,10.27
2018-06-19T11:03:30.805Z,9.50
2018-06-19T11:06:05.991Z,8.80
2018-06-19T11:08:34.294Z,9.23
2018-06-19T11:11:02.651Z,9.80
2018-06-19T11:13:31.308Z,9.97
2018-06-19T11:15:59.776Z,10.67
2018-06-19T11:18:28.125Z,10.17
2018-06-19T11:20:56.727Z,10.53
2018-06-19T11:23:25.644Z,10.60
2018-06-19T11:25:53.937Z,11.40
2018-06-19T11:28:22.257Z,9.93
2018-06-19T11:30:50.541Z,9.67
2018-06-19T11:33:18.871Z,10.30
2018-06-19T11:35:47.341Z,12.20
2018-06-19T11:38:15.878Z,12.30
2018-06-19T11:40:44.264Z,9.47
2018-06-19T11:43:12.635Z,8.87
2018-06-19T11:45:40.981Z,10.17
2018-06-19T11:48:09.453Z,9.03
2018-06-19T11:50:37.898Z,10.20
2018-06-19T11:53:06.273Z,9.47
2018-06-19T11:55:34.330Z,9.60
2018-06-19T11:58:02.721Z,9.07
2018-06-19T12:00:31.047Z,9.67
2018-06-19T12:02:59.363Z,9.93
2018-06-19T12:05:27.720Z,11.80
2018-06-19T12:07:56.083Z,12.30
2018-06-19T12:10:24.470Z,11.70
2018-06-19T12:12:52.785Z,12.57
2018-06-19T12:15:21.123Z,12.70
2018-06-19T12:17:49.467Z,12.30
2018-06-19T12:20:17.829Z,13.03
2018-06-19T12:22:46.201Z,12.47
2018-06-19T12:25:14.274Z,12.67
2018-06-19T12:27:42.345Z,12.47
2018-06-19T12:30:10.735Z,12.27
2018-06-19T12:33:41.763Z,11.30
2018-06-19T12:36:09.820Z,10.03
2018-06-19T12:38:38.418Z,7.23
2018-06-19T12:41:07.078Z,6.13
2018-06-19T12:43:35.471Z,5.57
2018-06-19T12:46:03.818Z,4.90
2018-06-19T12:48:32.195Z,6.03
2018-06-19T12:52:10.189Z,2.80
2018-06-19T12:54:53.188Z,2.97
2018-06-19T12:57:21.584Z,2.50
2018-06-19T12:59:49.871Z,2.77
2018-06-19T13:02:18.239Z,5.13
2018-06-19T13:04:58.058Z,2.80
2018-06-19T13:07:27.340Z,3.23
2018-06-19T13:09:55.808Z,5.50
2018-06-19T13:12:35.633Z,3.60
2018-06-19T13:15:04.059Z,3.93
2018-06-19T13:17:43.685Z,4.17
2018-06-19T13:20:23.319Z,2.83
2018-06-19T13:22:52.207Z,3.73
2018-06-19T13:25:20.551Z,3.60
2018-06-19T13:27:48.865Z,2.77
2018-06-19T13:30:28.561Z,2.53
2018-06-19T13:32:57.595Z,2.83
2018-06-19T13:35:25.991Z,2.83
2018-06-19T13:37:54.322Z,2.87
2018-06-19T13:41:30.995Z,3.00
2018-06-19T13:44:13.141Z,3.47
2018-06-19T13:46:41.806Z,7.93
2018-06-19T13:49:10.114Z,5.60
2018-06-19T13:51:38.427Z,9.67
2018-06-19T13:54:06.761Z,4.70
2018-06-19T13:57:46.271Z,4.10
2018-06-19T14:00:16.525Z,4.77
2018-06-19T14:02:44.857Z,5.40
2018-06-19T14:05:14.091Z,4.50
2018-06-19T14:08:51.087Z,4.67
2018-06-19T14:11:30.875Z,3.33
2018-06-19T14:13:59.300Z,3.47
2018-06-19T14:16:27.621Z,4.63
2018-06-19T14:18:55.931Z,4.00
2018-06-19T14:21:24.233Z,4.03
2018-06-19T14:23:52.545Z,4.40
2018-06-19T14:26:20.852Z,3.73
2018-06-19T14:28:49.208Z,3.20
2018-06-19T14:31:17.513Z,3.47
2018-06-19T14:33:45.827Z,2.93
2018-06-19T14:36:14.157Z,4.73
2018-06-19T14:38:42.493Z,4.37
2018-06-19T14:41:10.809Z,3.07
2018-06-19T14:43:39.140Z,3.40
2018-06-19T14:46:07.445Z,3.57
2018-06-19T14:48:35.749Z,2.83
2018-06-19T14:51:04.025Z,2.30
2018-06-19T14:53:32.352Z,4.10
2018-06-19T14:56:00.640Z,2.13
2018-06-19T14:58:28.948Z,3.80
2018-06-19T15:00:57.323Z,2.73
2018-06-19T15:03:25.689Z,1.97
2018-06-19T15:05:53.989Z,2.13
2018-06-19T15:08:22.378Z,2.60
2018-06-19T15:10:50.705Z,1.60
2018-06-19T15:13:19.016Z,6.87
2018-06-19T15:15:47.314Z,2.13
2018-06-19T15:18:15.708Z,2.63
2018-06-19T15:20:44.008Z,2.40
2018-06-19T15:23:12.300Z,2.00
2018-06-19T15:25:40.682Z,3.07
2018-06-19T15:28:09.066Z,2.90
2018-06-19T15:30:37.387Z,3.73
2018-06-19T15:33:05.754Z,6.30
2018-06-19T15:35:34.101Z,2.97
2018-06-19T15:38:02.413Z,2.30
2018-06-19T15:40:30.801Z,2.50
2018-06-19T15:42:59.112Z,3.87
2018-06-19T15:45:27.448Z,3.80
2018-06-19T15:47:55.746Z,2.53
2018-06-19T15:50:24.142Z,3.83
2018-06-19T15:52:52.442Z,2.97
2018-06-19T15:55:20.782Z,4.03
2018-06-19T15:57:49.080Z,4.00
2018-06-19T16:00:17.158Z,2.77
2018-06-19T16:02:45.500Z,4.40
2018-06-19T16:05:13.830Z,2.97
2018-06-19T16:07:47.628Z,2.90
2018-06-19T16:10:15.944Z,2.83
2018-06-19T16:12:44.309Z,2.57
2018-06-19T16:15:12.630Z,3.60
2018-06-19T16:17:40.985Z,4.67
2018-06-19T16:20:09.295Z,3.73
2018-06-19T16:22:37.363Z,4.40
2018-06-19T16:25:05.391Z,3.07
2018-06-19T16:27:33.715Z,6.37
2018-06-19T16:30:03.140Z,3.93
2018-06-19T16:32:31.456Z,3.87
2018-06-19T16:34:59.796Z,3.00
2018-06-19T16:37:28.174Z,4.30
2018-06-19T16:39:56.482Z,4.13
2018-06-19T16:42:24.838Z,3.67
2018-06-19T16:44:53.168Z,4.93
2018-06-19T16:47:21.482Z,4.00
2018-06-19T16:49:49.784Z,4.33
2018-06-19T16:52:18.109Z,5.80
2018-06-19T16:54:46.472Z,3.43
2018-06-19T16:57:14.798Z,3.07
2018-06-19T16:59:43.120Z,3.43
2018-06-19T17:02:11.466Z,3.17
2018-06-19T17:04:39.832Z,9.60
2018-06-19T17:07:08.208Z,4.37
2018-06-19T17:09:36.584Z,4.97
2018-06-19T17:12:04.870Z,3.43
2018-06-19T17:14:33.174Z,3.17
2018-06-19T17:17:01.476Z,2.10
2018-06-19T17:19:29.830Z,4.83
2018-06-19T17:21:58.168Z,3.83
2018-06-19T17:24:26.652Z,2.60
2018-06-19T17:26:54.962Z,4.47
2018-06-19T17:29:23.291Z,3.37
2018-06-19T17:31:51.624Z,4.57
2018-06-19T17:34:19.951Z,4.60
2018-06-19T17:36:48.254Z,2.63
2018-06-19T17:39:16.622Z,3.30
2018-06-19T17:41:44.928Z,3.67
2018-06-19T17:44:13.256Z,3.93
2018-06-19T17:46:41.576Z,3.50
2018-06-19T17:49:09.910Z,2.60
2018-06-19T17:51:38.247Z,4.00
2018-06-19T17:54:06.621Z,3.27
2018-06-19T17:56:34.682Z,3.37
2018-06-19T17:59:03.131Z,4.07
2018-06-19T18:01:31.446Z,4.37
2018-06-19T18:03:59.776Z,3.00
2018-06-19T18:06:28.109Z,2.90
2018-06-19T18:08:56.418Z,3.57
2018-06-19T18:11:24.772Z,4.67
2018-06-19T18:13:53.092Z,4.57
2018-06-19T18:16:21.416Z,4.00
2018-06-19T18:18:56.243Z,4.50
2018-06-19T18:21:25.086Z,6.37
2018-06-19T18:23:53.479Z,4.93
2018-06-19T18:26:21.765Z,3.23
2018-06-19T18:28:50.138Z,4.37
2018-06-19T18:31:18.455Z,4.80
2018-06-19T18:33:46.849Z,2.57
2018-06-19T18:36:15.188Z,5.43
2018-06-19T18:38:43.518Z,3.40
2018-06-19T18:41:11.888Z,3.43
2018-06-19T18:43:39.908Z,3.13
2018-06-19T18:46:08.239Z,5.17
2018-06-19T18:48:36.541Z,3.77
2018-06-19T18:51:04.850Z,3.60
2018-06-19T18:53:33.186Z,4.23
2018-06-19T18:56:01.508Z,3.70
2018-06-19T18:58:29.583Z,6.80
2018-06-19T19:00:57.638Z,4.80
2018-06-19T19:03:26.036Z,5.80
2018-06-19T19:05:54.098Z,4.93
2018-06-19T19:08:23.805Z,4.80
2018-06-19T19:10:54.557Z,3.37
2018-06-19T19:13:24.110Z,4.23
2018-06-19T19:15:57.760Z,4.50
2018-06-19T19:18:31.386Z,5.13
2018-06-19T19:21:00.465Z,5.43
2018-06-19T19:23:29.442Z,3.50
2018-06-19T19:25:57.837Z,6.03
2018-06-19T19:28:31.681Z,3.50
2018-06-19T19:31:00.066Z,6.00
2018-06-19T19:33:28.468Z,3.93
2018-06-19T19:35:56.801Z,5.00
2018-06-19T19:38:30.403Z,3.57
2018-06-19T19:40:58.795Z,5.33
2018-06-19T19:43:27.248Z,4.80
2018-06-19T19:45:55.603Z,4.63
2018-06-19T19:48:29.410Z,3.63
2018-06-19T19:50:57.734Z,5.13
2018-06-19T19:53:26.084Z,4.80
2018-06-19T19:55:59.735Z,4.30
2018-06-19T19:58:33.348Z,4.40
2018-06-19T20:01:01.659Z,3.90
2018-06-19T20:03:30.009Z,5.57
2018-06-19T20:05:58.420Z,7.50
2018-06-19T20:08:27.616Z,7.20
2018-06-19T20:10:55.950Z,4.47
2018-06-19T20:13:24.335Z,3.63
2018-06-19T20:15:52.656Z,3.87
2018-06-19T20:20:55.553Z,4.77
2018-06-19T20:23:23.888Z,5.00
2018-06-19T20:25:52.208Z,5.80
2018-06-19T20:28:20.518Z,5.50
2018-06-19T20:30:48.833Z,4.27
2018-06-19T20:33:17.171Z,3.93
2018-06-19T20:35:45.530Z,4.70
2018-06-19T20:38:14.458Z,4.67
2018-06-19T20:40:42.804Z,3.43
2018-06-19T20:43:11.128Z,4.97
2018-06-19T20:45:40.324Z,5.20
2018-06-19T20:48:08.802Z,3.73
2018-06-19T20:50:39.166Z,4.40
2018-06-19T20:53:07.545Z,5.27
2018-06-19T20:55:35.856Z,6.47
2018-06-19T20:58:04.233Z,3.63
2018-06-19T21:00:32.716Z,3.30
2018-06-19T21:03:01.074Z,3.63
2018-06-19T21:05:29.422Z,4.20
2018-06-19T21:07:57.484Z,3.93
2018-06-19T21:10:25.991Z,3.60
2018-06-19T21:12:54.288Z,8.57
2018-06-19T21:15:23.542Z,4.23
2018-06-19T21:17:51.883Z,3.90
2018-06-19T21:20:20.198Z,3.73
2018-06-19T21:22:50.160Z,4.17
2018-06-19T21:25:18.546Z,4.80
2018-06-19T21:27:46.875Z,4.37
2018-06-19T21:30:15.182Z,3.40
2018-06-19T21:32:43.546Z,4.77
2018-06-19T21:35:11.878Z,7.00
2018-06-19T21:37:40.174Z,5.37
2018-06-19T21:40:08.796Z,3.67
2018-06-19T21:42:37.116Z,6.10
2018-06-19T21:45:05.582Z,6.70
2018-06-19T21:47:33.881Z,3.87
2018-06-19T21:50:02.236Z,4.27
2018-06-19T21:52:30.512Z,3.30
2018-06-19T21:54:58.834Z,3.30
2018-06-19T21:57:27.069Z,5.83
2018-06-19T21:59:55.384Z,4.10
2018-06-19T22:02:29.092Z,4.43
2018-06-19T22:04:57.387Z,3.57
2018-06-19T22:07:25.670Z,3.80
2018-06-19T22:09:53.972Z,3.20
2018-06-19T22:12:22.298Z,3.57
2018-06-19T22:14:50.614Z,3.27
2018-06-19T22:17:18.902Z,3.40
2018-06-19T22:19:47.319Z,4.77
2018-06-19T22:22:15.620Z,5.13
2018-06-19T22:24:43.935Z,5.47
2018-06-19T22:27:12.271Z,4.23
2018-06-19T22:29:40.595Z,6.40
2018-06-19T22:32:08.965Z,4.40
2018-06-19T22:34:37.249Z,4.57
2018-06-19T22:37:05.515Z,3.40
2018-06-19T22:39:34.014Z,5.50
2018-06-19T22:42:02.340Z,5.83
2018-06-19T22:44:30.681Z,3.67
2018-06-19T22:46:59.041Z,4.37
2018-06-19T22:49:27.323Z,4.30
2018-06-19T22:51:55.615Z,4.07
2018-06-19T22:54:23.934Z,5.80
2018-06-19T22:56:52.216Z,4.10
2018-06-19T22:59:20.549Z,4.33
2018-06-19T23:01:48.866Z,4.17
2018-06-19T23:04:17.336Z,3.37
2018-06-19T23:06:45.700Z,3.33
2018-06-19T23:09:14.007Z,4.33
2018-06-19T23:11:42.318Z,5.53
2018-06-19T23:14:10.599Z,5.07
2018-06-19T23:16:38.940Z,5.50
2018-06-19T23:19:07.279Z,5.03
2018-06-19T23:21:35.597Z,5.83
2018-06-19T23:24:03.918Z,4.10
2018-06-19T23:26:32.233Z,4.00
2018-06-19T23:29:00.555Z,4.00
2018-06-19T23:31:28.813Z,4.50
2018-06-19T23:33:57.138Z,3.87
2018-06-19T23:36:25.455Z,4.63
2018-06-19T23:38:53.780Z,4.93
2018-06-19T23:41:21.979Z,4.13
2018-06-19T23:43:50.264Z,4.67
2018-06-19T23:46:18.781Z,8.80
2018-06-19T23:48:47.107Z,4.97
2018-06-19T23:51:15.439Z,5.43
2018-06-19T23:53:43.751Z,4.77
2018-06-19T23:56:12.062Z,4.20
2018-06-19T23:58:40.350Z,7.17
